createdAt,value
2017-01-25T00:00:39.563Z,1015.23
2017-01-25T00:01:20.191Z,1015.22
2017-01-25T00:02:00.916Z,1015.23
2017-01-25T00:02:41.549Z,1015.22
2017-01-25T00:03:22.181Z,1015.22
2017-01-25T00:04:02.811Z,1015.17
2017-01-25T00:04:43.456Z,1015.17
2017-01-25T00:05:24.100Z,1015.22
2017-01-25T00:06:04.736Z,1015.2
2017-01-25T00:06:45.364Z,1015.14
2017-01-25T00:07:26.001Z,1015.14
2017-01-25T00:08:06.728Z,1015.15
2017-01-25T00:08:47.475Z,1015.15
2017-01-25T00:09:28.102Z,1015.14
2017-01-25T00:10:08.730Z,1015.14
2017-01-25T00:10:49.365Z,1015.14
2017-01-25T00:11:30.003Z,1015.12
2017-01-25T00:12:10.719Z,1015.15
2017-01-25T00:12:51.343Z,1015.15
2017-01-25T00:13:31.979Z,1015.1
2017-01-25T00:14:12.618Z,1015.09
2017-01-25T00:14:53.320Z,1015.09
2017-01-25T00:15:33.960Z,1015.08
2017-01-25T00:16:14.589Z,1015.08
2017-01-25T00:16:55.245Z,1015.07
2017-01-25T00:17:35.891Z,1015.06
2017-01-25T00:18:16.567Z,1015.07
2017-01-25T00:18:57.235Z,1015.05
2017-01-25T00:19:37.896Z,1015.06
2017-01-25T00:20:18.509Z,1015.09
2017-01-25T00:20:59.164Z,1015.11
2017-01-25T00:21:39.899Z,1015.1
2017-01-25T00:22:20.532Z,1015.11
2017-01-25T00:23:01.183Z,1015.1
2017-01-25T00:23:41.846Z,1015.14
2017-01-25T00:24:22.494Z,1015.13
2017-01-25T00:25:03.211Z,1015.1
2017-01-25T00:25:43.850Z,1015.12
2017-01-25T00:26:24.491Z,1015.09
2017-01-25T00:27:05.242Z,1015.07
2017-01-25T00:27:45.928Z,1015.07
2017-01-25T00:28:26.560Z,1015.05
2017-01-25T00:29:07.270Z,1015.04
2017-01-25T00:29:47.920Z,1015.03
2017-01-25T00:30:28.578Z,1015.03
2017-01-25T00:31:09.239Z,1015.02
2017-01-25T00:31:49.889Z,1015.04
2017-01-25T00:32:30.593Z,1015.04
2017-01-25T00:33:11.242Z,1015
2017-01-25T00:33:51.913Z,1015.04
2017-01-25T00:34:32.600Z,1015.01
2017-01-25T00:35:13.239Z,1014.99
2017-01-25T00:35:53.902Z,1014.97
2017-01-25T00:36:34.556Z,1015.01
2017-01-25T00:37:15.204Z,1014.99
2017-01-25T00:37:55.936Z,1015.01
2017-01-25T00:38:36.620Z,1015
2017-01-25T00:39:17.265Z,1014.97
2017-01-25T00:39:57.901Z,1014.99
2017-01-25T00:40:38.526Z,1014.96
2017-01-25T00:41:19.167Z,1014.99
2017-01-25T00:41:59.814Z,1014.98
2017-01-25T00:42:40.492Z,1014.95
2017-01-25T00:43:21.129Z,1014.94
2017-01-25T00:44:01.807Z,1014.95
2017-01-25T00:44:42.441Z,1014.9
2017-01-25T00:45:23.094Z,1014.92
2017-01-25T00:46:03.747Z,1014.9
2017-01-25T00:46:44.413Z,1014.87
2017-01-25T00:47:25.045Z,1014.86
2017-01-25T00:48:05.679Z,1014.84
2017-01-25T00:48:46.314Z,1014.85
2017-01-25T00:49:26.952Z,1014.85
2017-01-25T00:50:07.585Z,1014.85
2017-01-25T00:50:48.267Z,1014.84
2017-01-25T00:51:28.899Z,1014.86
2017-01-25T00:52:09.618Z,1014.83
2017-01-25T00:52:50.313Z,1014.83
2017-01-25T00:53:30.950Z,1014.84
2017-01-25T00:54:11.582Z,1014.84
2017-01-25T00:54:52.219Z,1014.81
2017-01-25T00:55:32.892Z,1014.83
2017-01-25T00:56:13.546Z,1014.8
2017-01-25T00:56:54.270Z,1014.8
2017-01-25T00:57:34.904Z,1014.8
2017-01-25T00:58:15.543Z,1014.75
2017-01-25T00:58:56.251Z,1014.77
2017-01-25T00:59:36.889Z,1014.72
2017-01-25T01:00:17.522Z,1014.75
2017-01-25T01:00:58.217Z,1014.71
2017-01-25T01:01:38.930Z,1014.73
2017-01-25T01:02:19.556Z,1014.73
2017-01-25T01:03:00.199Z,1014.72
2017-01-25T01:03:40.899Z,1014.69
2017-01-25T01:04:21.528Z,1014.71
2017-01-25T01:05:02.194Z,1014.68
2017-01-25T01:05:42.836Z,1014.67
2017-01-25T01:06:23.466Z,1014.65
2017-01-25T01:07:04.135Z,1014.67
2017-01-25T01:07:44.782Z,1014.65
2017-01-25T01:08:25.424Z,1014.66
2017-01-25T01:09:06.085Z,1014.64
2017-01-25T01:09:46.770Z,1014.64
2017-01-25T01:10:27.509Z,1014.62
2017-01-25T01:11:08.158Z,1014.61
2017-01-25T01:11:48.785Z,1014.59
2017-01-25T01:12:29.417Z,1014.6
2017-01-25T01:13:10.124Z,1014.6
2017-01-25T01:13:50.862Z,1014.57
2017-01-25T01:14:31.534Z,1014.57
2017-01-25T01:15:12.163Z,1014.54
2017-01-25T01:15:52.883Z,1014.53
2017-01-25T01:16:33.538Z,1014.51
2017-01-25T01:17:14.203Z,1014.5
2017-01-25T01:17:54.854Z,1014.53
2017-01-25T01:18:35.503Z,1014.49
2017-01-25T01:19:16.145Z,1014.51
2017-01-25T01:19:56.793Z,1014.47
2017-01-25T01:20:37.432Z,1014.49
2017-01-25T01:21:18.070Z,1014.51
2017-01-25T01:21:58.721Z,1014.47
2017-01-25T01:22:39.388Z,1014.46
2017-01-25T01:23:20.016Z,1014.48
2017-01-25T01:24:00.722Z,1014.44
2017-01-25T01:24:41.419Z,1014.44
2017-01-25T01:25:22.089Z,1014.41
2017-01-25T01:26:02.718Z,1014.44
2017-01-25T01:26:43.405Z,1014.45
2017-01-25T01:27:24.064Z,1014.41
2017-01-25T01:28:04.698Z,1014.41
2017-01-25T01:28:45.437Z,1014.37
2017-01-25T01:29:26.155Z,1014.4
2017-01-25T01:30:06.779Z,1014.38
2017-01-25T01:30:47.524Z,1014.41
2017-01-25T01:31:28.195Z,1014.39
2017-01-25T01:32:08.903Z,1014.42
2017-01-25T01:32:49.555Z,1014.4
2017-01-25T01:33:30.174Z,1014.38
2017-01-25T01:34:10.931Z,1014.36
2017-01-25T01:34:51.576Z,1014.37
2017-01-25T01:35:32.255Z,1014.34
2017-01-25T01:36:12.898Z,1014.32
2017-01-25T01:36:53.524Z,1014.32
2017-01-25T01:37:34.221Z,1014.31
2017-01-25T01:38:15.945Z,1014.3
2017-01-25T01:38:56.687Z,1014.27
2017-01-25T01:39:37.230Z,1014.28
2017-01-25T01:40:17.860Z,1014.25
2017-01-25T01:40:58.502Z,1014.21
2017-01-25T01:41:39.161Z,1014.23
2017-01-25T01:42:19.809Z,1014.2
2017-01-25T01:43:00.443Z,1014.22
2017-01-25T01:43:41.151Z,1014.21
2017-01-25T01:44:21.914Z,1014.19
2017-01-25T01:45:02.568Z,1014.19
2017-01-25T01:45:43.209Z,1014.21
2017-01-25T01:46:23.909Z,1014.21
2017-01-25T01:47:04.564Z,1014.2
2017-01-25T01:47:45.202Z,1014.15
2017-01-25T01:48:25.908Z,1014.17
2017-01-25T01:49:06.622Z,1014.14
2017-01-25T01:49:47.239Z,1014.15
2017-01-25T01:50:27.877Z,1014.19
2017-01-25T01:51:08.582Z,1014.12
2017-01-25T01:51:49.294Z,1014.17
2017-01-25T01:52:29.877Z,1014.18
2017-01-25T01:53:10.576Z,1014.15
2017-01-25T01:53:51.275Z,1014.15
2017-01-25T01:54:31.945Z,1014.18
2017-01-25T01:55:12.665Z,1014.12
2017-01-25T01:55:53.329Z,1014.13
2017-01-25T01:56:33.960Z,1014.09
2017-01-25T01:57:14.661Z,1014.07
2017-01-25T01:57:55.393Z,1014.09
2017-01-25T01:58:36.025Z,1014.08
2017-01-25T01:59:16.756Z,1014.1
2017-01-25T01:59:57.436Z,1014.07
2017-01-25T02:00:38.147Z,1014.05
2017-01-25T02:01:18.767Z,1014.09
2017-01-25T02:01:59.516Z,1014.04
2017-01-25T02:02:40.205Z,1014.06
2017-01-25T02:03:20.844Z,1014.05
2017-01-25T02:04:01.517Z,1014.04
2017-01-25T02:04:42.144Z,1014.06
2017-01-25T02:05:22.806Z,1014.01
2017-01-25T02:06:03.489Z,1013.99
2017-01-25T02:06:44.212Z,1013.99
2017-01-25T02:07:24.853Z,1014.01
2017-01-25T02:08:05.481Z,1013.99
2017-01-25T02:08:46.188Z,1014.01
2017-01-25T02:09:26.888Z,1014
2017-01-25T02:10:07.525Z,1013.99
2017-01-25T02:10:48.263Z,1014.01
2017-01-25T02:11:28.920Z,1014.01
2017-01-25T02:12:09.547Z,1014.02
2017-01-25T02:12:50.252Z,1014.01
2017-01-25T02:13:30.953Z,1014
2017-01-25T02:14:11.602Z,1014
2017-01-25T02:14:52.252Z,1014
2017-01-25T02:15:32.955Z,1013.98
2017-01-25T02:16:13.696Z,1013.98
2017-01-25T02:16:54.365Z,1013.95
2017-01-25T02:17:35.033Z,1013.97
2017-01-25T02:18:15.768Z,1013.95
2017-01-25T02:18:56.382Z,1013.99
2017-01-25T02:19:37.109Z,1013.99
2017-01-25T02:20:17.802Z,1013.95
2017-01-25T02:20:58.512Z,1014.01
2017-01-25T02:21:39.178Z,1013.97
2017-01-25T02:22:19.939Z,1013.97
2017-01-25T02:23:00.625Z,1013.95
2017-01-25T02:23:41.259Z,1013.97
2017-01-25T02:24:22.052Z,1014.01
2017-01-25T02:25:02.657Z,1013.95
2017-01-25T02:25:43.336Z,1013.96
2017-01-25T02:26:23.943Z,1013.96
2017-01-25T02:27:04.688Z,1013.92
2017-01-25T02:27:45.359Z,1013.94
2017-01-25T02:28:25.996Z,1013.95
2017-01-25T02:29:06.701Z,1013.95
2017-01-25T02:29:47.329Z,1013.94
2017-01-25T02:30:27.954Z,1013.95
2017-01-25T02:31:08.624Z,1013.96
2017-01-25T02:31:49.252Z,1013.93
2017-01-25T02:32:29.877Z,1013.96
2017-01-25T02:33:10.559Z,1013.96
2017-01-25T02:33:51.193Z,1013.93
2017-01-25T02:34:31.828Z,1013.88
2017-01-25T02:35:12.471Z,1013.92
2017-01-25T02:35:53.093Z,1013.88
2017-01-25T02:36:33.719Z,1013.87
2017-01-25T02:37:14.378Z,1013.89
2017-01-25T02:37:55.093Z,1013.87
2017-01-25T02:38:35.747Z,1013.89
2017-01-25T02:39:16.425Z,1013.88
2017-01-25T02:39:57.113Z,1013.89
2017-01-25T02:40:37.737Z,1013.9
2017-01-25T02:41:18.436Z,1013.9
2017-01-25T02:41:59.074Z,1013.93
2017-01-25T02:42:39.704Z,1013.87
2017-01-25T02:43:20.435Z,1013.88
2017-01-25T02:44:01.164Z,1013.84
2017-01-25T02:44:41.887Z,1013.83
2017-01-25T02:45:22.544Z,1013.86
2017-01-25T02:46:03.164Z,1013.87
2017-01-25T02:46:43.830Z,1013.9
2017-01-25T02:47:24.464Z,1013.82
2017-01-25T02:48:05.091Z,1013.76
2017-01-25T02:48:45.794Z,1013.75
2017-01-25T02:49:26.423Z,1013.75
2017-01-25T02:50:07.134Z,1013.76
2017-01-25T02:50:47.783Z,1013.76
2017-01-25T02:51:28.435Z,1013.72
2017-01-25T02:52:09.155Z,1013.72
2017-01-25T02:52:49.801Z,1013.73
2017-01-25T02:53:30.450Z,1013.72
2017-01-25T02:54:11.152Z,1013.71
2017-01-25T02:54:51.874Z,1013.71
2017-01-25T02:55:32.528Z,1013.66
2017-01-25T02:56:13.157Z,1013.66
2017-01-25T02:56:53.848Z,1013.66
2017-01-25T02:57:34.552Z,1013.64
2017-01-25T02:58:15.202Z,1013.62
2017-01-25T02:58:55.912Z,1013.59
2017-01-25T02:59:36.601Z,1013.58
2017-01-25T03:00:17.228Z,1013.55
2017-01-25T03:00:57.926Z,1013.58
2017-01-25T03:01:38.689Z,1013.58
2017-01-25T03:02:19.431Z,1013.59
2017-01-25T03:03:00.073Z,1013.58
2017-01-25T03:03:40.703Z,1013.58
2017-01-25T03:04:21.347Z,1013.52
2017-01-25T03:05:01.981Z,1013.54
2017-01-25T03:05:42.604Z,1013.54
2017-01-25T03:06:23.286Z,1013.6
2017-01-25T03:07:03.918Z,1013.5
2017-01-25T03:07:44.614Z,1013.57
2017-01-25T03:08:25.297Z,1013.5
2017-01-25T03:09:05.931Z,1013.5
2017-01-25T03:09:46.625Z,1013.44
2017-01-25T03:10:27.271Z,1013.49
2017-01-25T03:11:07.911Z,1013.44
2017-01-25T03:11:48.592Z,1013.45
2017-01-25T03:12:29.228Z,1013.48
2017-01-25T03:13:09.873Z,1013.46
2017-01-25T03:13:50.500Z,1013.47
2017-01-25T03:14:31.205Z,1013.4
2017-01-25T03:15:11.832Z,1013.41
2017-01-25T03:15:52.483Z,1013.43
2017-01-25T03:16:33.150Z,1013.44
2017-01-25T03:17:13.807Z,1013.41
2017-01-25T03:17:54.416Z,1013.4
2017-01-25T03:18:35.124Z,1013.36
2017-01-25T03:19:15.798Z,1013.39
2017-01-25T03:19:56.441Z,1013.4
2017-01-25T03:20:37.120Z,1013.39
2017-01-25T03:21:17.775Z,1013.38
2017-01-25T03:21:58.425Z,1013.35
2017-01-25T03:22:39.079Z,1013.32
2017-01-25T03:23:19.772Z,1013.33
2017-01-25T03:24:00.437Z,1013.29
2017-01-25T03:24:41.095Z,1013.26
2017-01-25T03:25:21.721Z,1013.32
2017-01-25T03:26:02.353Z,1013.29
2017-01-25T03:26:43.070Z,1013.3
2017-01-25T03:27:23.835Z,1013.27
2017-01-25T03:28:04.454Z,1013.29
2017-01-25T03:28:45.195Z,1013.28
2017-01-25T03:29:25.859Z,1013.28
2017-01-25T03:30:06.537Z,1013.26
2017-01-25T03:30:47.173Z,1013.25
2017-01-25T03:31:27.807Z,1013.29
2017-01-25T03:32:08.559Z,1013.27
2017-01-25T03:32:49.190Z,1013.24
2017-01-25T03:33:29.875Z,1013.25
2017-01-25T03:34:10.485Z,1013.24
2017-01-25T03:34:51.113Z,1013.23
2017-01-25T03:35:31.806Z,1013.22
2017-01-25T03:36:12.443Z,1013.21
2017-01-25T03:36:53.064Z,1013.21
2017-01-25T03:37:33.701Z,1013.2
2017-01-25T03:38:14.407Z,1013.18
2017-01-25T03:39:01.890Z,1013.2
2017-01-25T03:39:42.565Z,1013.2
2017-01-25T03:40:23.198Z,1013.2
2017-01-25T03:41:03.850Z,1013.18
2017-01-25T03:41:44.556Z,1013.17
2017-01-25T03:42:25.185Z,1013.2
2017-01-25T03:43:05.807Z,1013.2
2017-01-25T03:43:46.484Z,1013.2
2017-01-25T03:44:27.193Z,1013.18
2017-01-25T03:45:07.835Z,1013.13
2017-01-25T03:45:48.542Z,1013.15
2017-01-25T03:46:29.215Z,1013.15
2017-01-25T03:47:09.871Z,1013.14
2017-01-25T03:47:50.576Z,1013.12
2017-01-25T03:48:31.202Z,1013.12
2017-01-25T03:49:11.858Z,1013.09
2017-01-25T03:49:52.534Z,1013.14
2017-01-25T03:50:33.161Z,1013.16
2017-01-25T03:51:13.800Z,1013.15
2017-01-25T03:51:54.449Z,1013.16
2017-01-25T03:52:35.138Z,1013.12
2017-01-25T03:53:15.853Z,1013.16
2017-01-25T03:53:56.422Z,1013.18
2017-01-25T03:54:37.132Z,1013.14
2017-01-25T03:55:17.844Z,1013.17
2017-01-25T03:55:58.489Z,1013.14
2017-01-25T03:56:39.219Z,1013.16
2017-01-25T03:57:19.903Z,1013.17
2017-01-25T03:58:00.523Z,1013.16
2017-01-25T03:58:41.176Z,1013.17
2017-01-25T03:59:21.891Z,1013.18
2017-01-25T04:00:02.539Z,1013.18
2017-01-25T04:00:43.179Z,1013.2
2017-01-25T04:01:23.876Z,1013.17
2017-01-25T04:02:04.504Z,1013.22
2017-01-25T04:02:45.153Z,1013.2
2017-01-25T04:03:25.835Z,1013.22
2017-01-25T04:04:06.471Z,1013.22
2017-01-25T04:04:47.159Z,1013.19
2017-01-25T04:05:27.795Z,1013.16
2017-01-25T04:06:08.471Z,1013.18
2017-01-25T04:06:49.085Z,1013.17
2017-01-25T04:07:29.818Z,1013.16
2017-01-25T04:08:10.497Z,1013.16
2017-01-25T04:08:51.128Z,1013.14
2017-01-25T04:09:31.751Z,1013.15
2017-01-25T04:10:12.423Z,1013.18
2017-01-25T04:10:53.077Z,1013.2
2017-01-25T04:11:33.708Z,1013.17
2017-01-25T04:12:14.341Z,1013.16
2017-01-25T04:12:54.976Z,1013.19
2017-01-25T04:13:35.664Z,1013.12
2017-01-25T04:14:16.297Z,1013.13
2017-01-25T04:14:56.928Z,1013.15
2017-01-25T04:15:37.626Z,1013.08
2017-01-25T04:16:18.313Z,1013.09
2017-01-25T04:16:58.968Z,1013.1
2017-01-25T04:17:39.683Z,1013.08
2017-01-25T04:18:20.362Z,1013.1
2017-01-25T04:19:00.991Z,1013.09
2017-01-25T04:19:41.678Z,1013.11
2017-01-25T04:20:22.362Z,1013.08
2017-01-25T04:21:03.007Z,1013.05
2017-01-25T04:21:43.626Z,1013.09
2017-01-25T04:22:24.253Z,1013.06
2017-01-25T04:23:04.882Z,1013.05
2017-01-25T04:23:45.502Z,1013.08
2017-01-25T04:24:26.230Z,1013.05
2017-01-25T04:25:06.852Z,1013.04
2017-01-25T04:25:47.551Z,1013.03
2017-01-25T04:26:28.230Z,1013.04
2017-01-25T04:27:08.935Z,1013.01
2017-01-25T04:27:49.585Z,1012.96
2017-01-25T04:28:30.295Z,1012.99
2017-01-25T04:29:10.919Z,1013
2017-01-25T04:29:51.547Z,1012.95
2017-01-25T04:30:32.256Z,1012.95
2017-01-25T04:31:12.934Z,1012.96
2017-01-25T04:31:53.581Z,1012.93
2017-01-25T04:32:34.211Z,1013
2017-01-25T04:33:14.845Z,1012.94
2017-01-25T04:33:55.489Z,1012.96
2017-01-25T04:34:36.158Z,1012.98
2017-01-25T04:35:16.903Z,1012.97
2017-01-25T04:35:57.551Z,1012.97
2017-01-25T04:36:38.194Z,1012.95
2017-01-25T04:37:18.845Z,1012.93
2017-01-25T04:37:59.471Z,1012.94
2017-01-25T04:38:40.217Z,1012.95
2017-01-25T04:39:20.875Z,1012.89
2017-01-25T04:40:01.583Z,1012.91
2017-01-25T04:40:42.216Z,1012.9
2017-01-25T04:41:22.848Z,1012.92
2017-01-25T04:42:03.524Z,1012.95
2017-01-25T04:42:44.161Z,1012.9
2017-01-25T04:43:24.865Z,1012.86
2017-01-25T04:44:05.497Z,1012.92
2017-01-25T04:44:46.178Z,1012.9
2017-01-25T04:45:26.831Z,1012.87
2017-01-25T04:46:07.461Z,1012.88
2017-01-25T04:46:48.095Z,1012.86
2017-01-25T04:47:28.731Z,1012.85
2017-01-25T04:48:09.366Z,1012.86
2017-01-25T04:48:50.005Z,1012.85
2017-01-25T04:49:30.639Z,1012.89
2017-01-25T04:50:11.338Z,1012.9
2017-01-25T04:50:51.976Z,1012.86
2017-01-25T04:51:32.622Z,1012.87
2017-01-25T04:52:13.258Z,1012.85
2017-01-25T04:52:53.883Z,1012.89
2017-01-25T04:53:34.622Z,1012.84
2017-01-25T04:54:15.260Z,1012.88
2017-01-25T04:54:55.900Z,1012.89
2017-01-25T04:55:36.579Z,1012.84
2017-01-25T04:56:17.206Z,1012.91
2017-01-25T04:56:57.833Z,1012.83
2017-01-25T04:57:38.514Z,1012.84
2017-01-25T04:58:19.256Z,1012.85
2017-01-25T04:59:00.019Z,1012.84
2017-01-25T04:59:40.603Z,1012.83
2017-01-25T05:00:21.304Z,1012.82
2017-01-25T05:01:02.020Z,1012.82
2017-01-25T05:01:42.659Z,1012.79
2017-01-25T05:02:23.370Z,1012.82
2017-01-25T05:03:04.013Z,1012.83
2017-01-25T05:03:44.641Z,1012.84
2017-01-25T05:04:25.330Z,1012.86
2017-01-25T05:05:05.960Z,1012.85
2017-01-25T05:05:46.595Z,1012.85
2017-01-25T05:06:27.248Z,1012.83
2017-01-25T05:07:07.992Z,1012.86
2017-01-25T05:07:48.633Z,1012.83
2017-01-25T05:08:29.285Z,1012.83
2017-01-25T05:09:09.952Z,1012.84
2017-01-25T05:09:50.591Z,1012.82
2017-01-25T05:10:31.223Z,1012.82
2017-01-25T05:11:11.888Z,1012.83
2017-01-25T05:11:52.522Z,1012.81
2017-01-25T05:12:33.228Z,1012.83
2017-01-25T05:13:13.877Z,1012.86
2017-01-25T05:13:54.638Z,1012.86
2017-01-25T05:14:35.292Z,1012.83
2017-01-25T05:15:16.046Z,1012.84
2017-01-25T05:15:56.784Z,1012.86
2017-01-25T05:16:37.508Z,1012.86
2017-01-25T05:17:18.100Z,1012.83
2017-01-25T05:17:58.786Z,1012.85
2017-01-25T05:18:39.476Z,1012.82
2017-01-25T05:19:20.093Z,1012.82
2017-01-25T05:20:00.741Z,1012.8
2017-01-25T05:20:41.455Z,1012.78
2017-01-25T05:21:22.122Z,1012.82
2017-01-25T05:22:02.796Z,1012.8
2017-01-25T05:22:43.486Z,1012.77
2017-01-25T05:23:24.126Z,1012.78
2017-01-25T05:24:04.823Z,1012.8
2017-01-25T05:24:45.455Z,1012.79
2017-01-25T05:25:26.084Z,1012.77
2017-01-25T05:26:06.813Z,1012.78
2017-01-25T05:26:47.447Z,1012.82
2017-01-25T05:27:28.074Z,1012.78
2017-01-25T05:28:08.804Z,1012.79
2017-01-25T05:28:49.484Z,1012.77
2017-01-25T05:29:30.192Z,1012.75
2017-01-25T05:30:10.807Z,1012.74
2017-01-25T05:30:51.496Z,1012.74
2017-01-25T05:31:32.179Z,1012.74
2017-01-25T05:32:12.813Z,1012.71
2017-01-25T05:32:53.530Z,1012.74
2017-01-25T05:33:34.266Z,1012.71
2017-01-25T05:34:14.886Z,1012.73
2017-01-25T05:34:55.539Z,1012.7
2017-01-25T05:35:36.213Z,1012.74
2017-01-25T05:36:16.845Z,1012.71
2017-01-25T05:36:57.472Z,1012.74
2017-01-25T05:37:38.123Z,1012.68
2017-01-25T05:38:18.750Z,1012.72
2017-01-25T05:38:59.377Z,1012.71
2017-01-25T05:39:40.089Z,1012.75
2017-01-25T05:40:20.718Z,1012.75
2017-01-25T05:41:01.413Z,1012.77
2017-01-25T05:41:42.053Z,1012.78
2017-01-25T05:42:22.720Z,1012.79
2017-01-25T05:43:03.371Z,1012.8
2017-01-25T05:43:44.022Z,1012.8
2017-01-25T05:44:24.698Z,1012.76
2017-01-25T05:45:05.334Z,1012.77
2017-01-25T05:45:45.980Z,1012.83
2017-01-25T05:46:26.637Z,1012.81
2017-01-25T05:47:07.321Z,1012.78
2017-01-25T05:47:47.989Z,1012.82
2017-01-25T05:48:28.619Z,1012.82
2017-01-25T05:49:09.246Z,1012.86
2017-01-25T05:49:49.922Z,1012.85
2017-01-25T05:50:30.602Z,1012.82
2017-01-25T05:51:11.233Z,1012.85
2017-01-25T05:51:51.962Z,1012.85
2017-01-25T05:52:32.648Z,1012.87
2017-01-25T05:53:13.270Z,1012.85
2017-01-25T05:53:53.948Z,1012.91
2017-01-25T05:54:34.614Z,1012.89
2017-01-25T05:55:15.261Z,1012.88
2017-01-25T05:55:55.947Z,1012.87
2017-01-25T05:56:36.587Z,1012.84
2017-01-25T05:57:17.238Z,1012.83
2017-01-25T05:57:57.891Z,1012.86
2017-01-25T05:58:38.576Z,1012.8
2017-01-25T05:59:19.212Z,1012.82
2017-01-25T05:59:59.845Z,1012.84
2017-01-25T06:00:40.597Z,1012.84
2017-01-25T06:01:21.308Z,1012.8
2017-01-25T06:02:01.945Z,1012.84
2017-01-25T06:02:42.685Z,1012.84
2017-01-25T06:03:23.322Z,1012.86
2017-01-25T06:04:03.953Z,1012.86
2017-01-25T06:04:44.654Z,1012.85
2017-01-25T06:05:25.358Z,1012.85
2017-01-25T06:06:05.988Z,1012.84
2017-01-25T06:06:46.689Z,1012.84
2017-01-25T06:07:27.432Z,1012.84
2017-01-25T06:08:08.070Z,1012.85
2017-01-25T06:08:48.697Z,1012.85
2017-01-25T06:09:29.332Z,1012.88
2017-01-25T06:10:10.006Z,1012.88
2017-01-25T06:10:50.654Z,1012.9
2017-01-25T06:11:31.334Z,1012.88
2017-01-25T06:12:12.006Z,1012.87
2017-01-25T06:12:52.643Z,1012.84
2017-01-25T06:13:33.354Z,1012.84
2017-01-25T06:14:14.010Z,1012.84
2017-01-25T06:14:54.636Z,1012.86
2017-01-25T06:15:35.361Z,1012.84
2017-01-25T06:16:15.984Z,1012.87
2017-01-25T06:16:56.624Z,1012.88
2017-01-25T06:17:37.291Z,1012.88
2017-01-25T06:18:17.989Z,1012.88
2017-01-25T06:18:58.639Z,1012.88
2017-01-25T06:19:39.235Z,1012.89
2017-01-25T06:20:19.871Z,1012.92
2017-01-25T06:21:00.496Z,1012.88
2017-01-25T06:21:41.127Z,1012.9
2017-01-25T06:22:21.822Z,1012.88
2017-01-25T06:23:02.454Z,1012.86
2017-01-25T06:23:43.182Z,1012.88
2017-01-25T06:24:23.902Z,1012.9
2017-01-25T06:25:04.532Z,1012.87
2017-01-25T06:25:45.171Z,1012.91
2017-01-25T06:26:25.823Z,1012.9
2017-01-25T06:27:06.492Z,1012.93
2017-01-25T06:27:47.135Z,1012.95
2017-01-25T06:28:27.762Z,1012.92
2017-01-25T06:29:08.430Z,1012.93
2017-01-25T06:29:49.063Z,1012.95
2017-01-25T06:30:29.703Z,1012.98
2017-01-25T06:31:10.456Z,1012.97
2017-01-25T06:31:51.107Z,1012.98
2017-01-25T06:32:31.743Z,1012.97
2017-01-25T06:33:12.397Z,1012.95
2017-01-25T06:33:53.019Z,1012.95
2017-01-25T06:34:33.661Z,1012.92
2017-01-25T06:35:14.343Z,1012.92
2017-01-25T06:35:54.973Z,1012.98
2017-01-25T06:36:35.695Z,1012.96
2017-01-25T06:37:16.424Z,1012.96
2017-01-25T06:37:57.067Z,1012.95
2017-01-25T06:38:37.716Z,1012.97
2017-01-25T06:39:18.407Z,1012.96
2017-01-25T06:39:59.037Z,1013
2017-01-25T06:40:39.655Z,1012.95
2017-01-25T06:41:20.293Z,1012.98
2017-01-25T06:42:00.921Z,1013
2017-01-25T06:42:41.553Z,1012.97
2017-01-25T06:43:22.179Z,1012.95
2017-01-25T06:44:02.835Z,1013.03
2017-01-25T06:44:43.568Z,1012.95
2017-01-25T06:45:24.267Z,1013.02
2017-01-25T06:46:04.983Z,1012.99
2017-01-25T06:46:45.631Z,1013.01
2017-01-25T06:47:26.277Z,1013.02
2017-01-25T06:48:06.949Z,1013.06
2017-01-25T06:48:47.575Z,1013
2017-01-25T06:49:28.204Z,1013.01
2017-01-25T06:50:08.852Z,1013.03
2017-01-25T06:50:49.479Z,1012.99
2017-01-25T06:51:30.201Z,1013.01
2017-01-25T06:52:10.871Z,1012.96
2017-01-25T06:52:51.492Z,1012.96
2017-01-25T06:53:32.160Z,1013.01
2017-01-25T06:54:12.793Z,1012.97
2017-01-25T06:54:53.432Z,1012.97
2017-01-25T06:55:34.141Z,1012.94
2017-01-25T06:56:14.846Z,1012.94
2017-01-25T06:56:55.468Z,1012.95
2017-01-25T06:57:36.212Z,1012.91
2017-01-25T06:58:16.921Z,1012.91
2017-01-25T06:58:57.592Z,1012.93
2017-01-25T06:59:38.237Z,1012.93
2017-01-25T07:00:18.865Z,1012.98
2017-01-25T07:00:59.564Z,1012.94
2017-01-25T07:01:40.240Z,1012.97
2017-01-25T07:02:20.907Z,1013.05
2017-01-25T07:03:01.548Z,1012.99
2017-01-25T07:03:42.209Z,1012.99
2017-01-25T07:04:22.884Z,1012.94
2017-01-25T07:05:03.658Z,1013.06
2017-01-25T07:05:44.305Z,1013.02
2017-01-25T07:06:25.020Z,1013.01
2017-01-25T07:07:05.679Z,1013.01
2017-01-25T07:07:46.390Z,1013.01
2017-01-25T07:08:27.038Z,1013
2017-01-25T07:09:07.776Z,1012.99
2017-01-25T07:09:48.480Z,1012.97
2017-01-25T07:10:29.104Z,1012.91
2017-01-25T07:11:09.800Z,1012.94
2017-01-25T07:11:50.465Z,1012.92
2017-01-25T07:12:31.101Z,1012.92
2017-01-25T07:13:11.732Z,1012.92
2017-01-25T07:13:52.393Z,1012.95
2017-01-25T07:14:33.033Z,1012.99
2017-01-25T07:15:13.670Z,1012.98
2017-01-25T07:15:54.291Z,1012.99
2017-01-25T07:16:34.925Z,1012.99
2017-01-25T07:17:15.674Z,1013.02
2017-01-25T07:17:56.336Z,1012.97
2017-01-25T07:18:37.036Z,1013.03
2017-01-25T07:19:17.732Z,1013
2017-01-25T07:19:58.418Z,1013.01
2017-01-25T07:20:39.045Z,1013.06
2017-01-25T07:21:19.698Z,1013.05
2017-01-25T07:22:00.398Z,1013.05
2017-01-25T07:22:41.140Z,1013.05
2017-01-25T07:23:21.776Z,1013.04
2017-01-25T07:24:02.438Z,1013.01
2017-01-25T07:24:43.080Z,1013.08
2017-01-25T07:25:23.721Z,1013.08
2017-01-25T07:26:05.419Z,1013.06
2017-01-25T07:26:46.086Z,1013.04
2017-01-25T07:27:26.786Z,1013.06
2017-01-25T07:28:07.434Z,1013.08
2017-01-25T07:28:48.075Z,1013.05
2017-01-25T07:29:28.775Z,1013.04
2017-01-25T07:30:09.430Z,1013.06
2017-01-25T07:30:50.100Z,1012.99
2017-01-25T07:31:30.722Z,1013
2017-01-25T07:32:11.360Z,1012.98
2017-01-25T07:32:52.028Z,1012.96
2017-01-25T07:33:32.735Z,1012.97
2017-01-25T07:34:13.374Z,1012.94
2017-01-25T07:34:54.009Z,1012.96
2017-01-25T07:35:34.643Z,1013
2017-01-25T07:36:15.308Z,1013
2017-01-25T07:36:55.930Z,1012.98
2017-01-25T07:37:36.571Z,1012.99
2017-01-25T07:38:17.199Z,1013.01
2017-01-25T07:38:57.971Z,1013.03
2017-01-25T07:39:39.221Z,1013.06
2017-01-25T07:40:19.229Z,1013.07
2017-01-25T07:40:59.881Z,1013.07
2017-01-25T07:41:40.515Z,1013.03
2017-01-25T07:42:21.152Z,1013.01
2017-01-25T07:43:01.777Z,1013.07
2017-01-25T07:43:42.524Z,1012.98
2017-01-25T07:44:23.151Z,1013.03
2017-01-25T07:45:03.854Z,1013.01
2017-01-25T07:45:44.510Z,1013.05
2017-01-25T07:46:25.143Z,1013
2017-01-25T07:47:05.776Z,1013
2017-01-25T07:47:46.442Z,1013.03
2017-01-25T07:48:27.066Z,1012.98
2017-01-25T07:49:07.721Z,1013.04
2017-01-25T07:49:48.352Z,1013.04
2017-01-25T07:50:28.981Z,1012.95
2017-01-25T07:51:09.669Z,1012.99
2017-01-25T07:51:50.296Z,1013
2017-01-25T07:52:30.943Z,1012.97
2017-01-25T07:53:11.612Z,1013
2017-01-25T07:53:52.209Z,1012.97
2017-01-25T07:54:32.841Z,1012.95
2017-01-25T07:55:13.510Z,1012.97
2017-01-25T07:55:54.140Z,1012.94
2017-01-25T07:56:34.767Z,1013.01
2017-01-25T07:57:15.398Z,1012.95
2017-01-25T07:57:56.129Z,1012.98
2017-01-25T07:58:36.763Z,1012.99
2017-01-25T07:59:17.421Z,1013
2017-01-25T07:59:58.115Z,1012.97
2017-01-25T08:00:38.758Z,1013
2017-01-25T08:01:19.445Z,1012.98
2017-01-25T08:02:00.161Z,1013
2017-01-25T08:02:40.809Z,1013.01
2017-01-25T08:03:21.472Z,1012.99
2017-01-25T08:04:02.201Z,1012.99
2017-01-25T08:04:42.844Z,1012.98
2017-01-25T08:05:23.488Z,1012.95
2017-01-25T08:06:04.123Z,1012.92
2017-01-25T08:06:44.773Z,1012.94
2017-01-25T08:07:25.384Z,1012.96
2017-01-25T08:08:06.024Z,1012.9
2017-01-25T08:08:46.665Z,1012.98
2017-01-25T08:09:27.290Z,1013
2017-01-25T08:10:07.975Z,1012.98
2017-01-25T08:10:48.610Z,1012.99
2017-01-25T08:11:29.250Z,1012.97
2017-01-25T08:12:09.881Z,1013.03
2017-01-25T08:12:50.502Z,1013.04
2017-01-25T08:13:31.147Z,1013
2017-01-25T08:14:11.799Z,1012.98
2017-01-25T08:14:52.516Z,1012.97